Airfield :
LOGIN :

Register | Disclaimer

   EN    FR    IT 

 










Legend :    VFR   Marginal VFR   IFR   Intensive IFR   Very Intensive IFR
Visi :
Ceiling :
>= 8 km
>= 3000ft
5 to 8 km
1000 to 3000 ft
1500m to 5 km
500 to 1000 ft
800 to 1500m
200 to 500 ft
< 800m
< 200 ft
Symbols :   Thunderstorms  Fog  Heavy snow  Heavy precipitations  Wind > 20 kt
SIGMETs :     Misc.  Thunderstorms  Icing  Turbulence  Mountain Waves  Volcanic Ashes






- Airport Elevation : 2595 ft
- IATA code : SLM


LESA - Salamanca Matacan

CURRENT METAR :
  • 271500Z 29007KT 260V330 9999 FEW015 16/11 Q1027

EXPIRED METARs :
  • 271430Z 29006KT 250V330 9999 FEW015 16/11 Q1027
  • 271400Z 29006KT 250V320 9999 FEW015 16/11 Q1027
  • 271330Z 27006KT 240V310 9999 FEW015 15/11 Q1027
  • 271300Z 30005KT 260V340 9999 FEW012 15/10 Q1028
  • 271230Z 30006KT 270V350 9999 SCT012 14/10 Q1028

TAF TAF LESA
Valid from the 27 at 15:00 until the 28 at 15:00 UTC


271400Z 2715/2815 25008KT 9999 SCT020 TX16/2715Z TN06/2806Z
PROB30
TEMPO 2715/2722 BKN014
TEMPO 2722/2813 1500 BR BCFG DZ BKN003
PROB40
TEMPO 2723/2810 0400 FG VV001



MET'MAP, your aeronautical weather chart ! - Copyright ORBIFLY December 2007 - Disclaimer

ORBIFLY MET'MAP TEAM :

Programming & Development : Alexandra Zaïnal
Concept & original design : Baudouin d'Aumeries
Assistance for programming : Marc-Olivier Méhu
Technical & hardware support : Manuel Goepfert

Contact : metmap@orbifly.com




SOURCES & CREDITS :

   NOAA